Time;durP1;ratioP1;P1;durP2;ratioP2;P2;SDS_P1;SDS_P2;PMS_P1;PMS_P2;Temp;Humidity;BMP_temperature;BMP_pressure;BME280_temperature;BME280_humidity;BME280_pressure;Samples;Min_cycle;Max_cycle;Signal;HPM_P1;HPM_P2
2023/08/15 00:02:02;;;;;;;11.23;8.47;;;;;;;20.78;86.06;100998.50;4989985;28;21435;-72
2023/08/15 00:04:28;;;;;;;10.73;8.20;;;;;;;20.76;87.47;101027.66;4990161;28;20219;-72
2023/08/15 00:06:54;;;;;;;10.63;9.23;;;;;;;20.76;86.91;101020.38;4985983;28;20214;-72
2023/08/15 00:09:21;;;;;;;10.70;9.17;;;;;;;20.79;87.61;101002.72;4981282;28;20237;-71
2023/08/15 00:11:48;;;;;;;11.73;10.03;;;;;;;20.82;87.03;101021.53;4987515;28;20585;-72
2023/08/15 00:14:15;;;;;;;10.77;9.67;;;;;;;20.82;87.44;101061.00;4988653;28;20241;-72
2023/08/15 00:16:42;;;;;;;12.03;10.10;;;;;;;20.87;87.44;101068.69;4985687;28;20810;-71
2023/08/15 00:19:08;;;;;;;10.97;9.87;;;;;;;20.90;87.17;101049.19;4986563;28;20454;-72
2023/08/15 00:21:34;;;;;;;10.67;9.57;;;;;;;20.93;87.05;101054.53;4983525;28;20215;-71
2023/08/15 00:24:01;;;;;;;10.37;9.27;;;;;;;20.95;87.02;101051.47;4987412;28;20208;-71
2023/08/15 00:26:27;;;;;;;9.57;8.53;;;;;;;20.95;86.73;101051.47;4984515;28;20238;-72
2023/08/15 00:28:55;;;;;;;15.33;9.27;;;;;;;20.97;86.54;101060.69;4989257;28;20211;-72
2023/08/15 00:31:21;;;;;;;10.00;8.83;;;;;;;20.95;86.48;101068.34;4980409;28;20199;-72
2023/08/15 00:33:47;;;;;;;9.90;8.73;;;;;;;20.98;86.68;101048.00;4984985;28;20211;-71
2023/08/15 00:36:14;;;;;;;8.80;7.93;;;;;;;20.98;86.41;101059.53;4988463;28;20221;-71
2023/08/15 00:38:41;;;;;;;9.23;7.60;;;;;;;21.00;86.22;101059.91;4979307;28;20264;-72
2023/08/15 00:41:07;;;;;;;7.33;6.53;;;;;;;21.00;86.36;101051.84;4978094;28;20239;-71
2023/08/15 00:43:35;;;;;;;7.43;6.63;;;;;;;21.00;85.75;101054.53;4982797;28;20210;-71
2023/08/15 00:46:06;;;;;;;6.50;5.90;;;;;;;20.99;85.65;101053.00;4981709;28;20215;-71
2023/08/15 00:48:33;;;;;;;6.30;5.27;;;;;;;21.00;85.36;101041.09;4987440;28;20211;-71
2023/08/15 00:51:01;;;;;;;5.33;4.83;;;;;;;21.01;85.18;101047.25;4986093;28;20959;-72
2023/08/15 00:53:30;;;;;;;6.40;5.23;;;;;;;21.01;84.90;101037.25;4979728;28;20218;-72
2023/08/15 00:55:58;;;;;;;7.67;5.63;;;;;;;21.01;84.68;101036.50;4988630;28;20215;-72
2023/08/15 00:58:25;;;;;;;5.77;5.20;;;;;;;21.00;84.53;101032.28;4984420;28;20218;-70
2023/08/15 01:00:52;;;;;;;4.90;4.40;;;;;;;20.98;84.37;101039.94;4986499;28;20223;-72
2023/08/15 01:03:20;;;;;;;5.43;4.93;;;;;;;20.95;84.13;101040.75;4989922;28;20887;-71
2023/08/15 01:05:48;;;;;;;5.30;4.80;;;;;;;20.93;84.42;101040.34;4983396;28;20458;-72
2023/08/15 01:08:14;;;;;;;5.10;4.60;;;;;;;20.90;84.10;101038.44;4975740;28;20215;-72
2023/08/15 01:10:41;;;;;;;5.03;4.53;;;;;;;20.86;84.18;101034.94;4981544;28;20250;-72
2023/08/15 01:13:14;;;;;;;5.20;4.70;;;;;;;20.82;84.10;101032.25;4987604;28;20555;-71
2023/08/15 01:15:46;;;;;;;5.33;4.83;;;;;;;20.79;83.80;101030.34;4987081;28;20685;-72
2023/08/15 01:18:17;;;;;;;5.23;4.53;;;;;;;20.75;83.92;101018.81;4988330;28;20233;-72
2023/08/15 01:20:47;;;;;;;5.13;4.63;;;;;;;20.73;83.83;101029.19;4988172;28;20365;-71
2023/08/15 01:23:16;;;;;;;5.33;4.83;;;;;;;20.69;83.61;101020.34;4988104;28;20250;-71
2023/08/15 01:25:45;;;;;;;5.07;4.57;;;;;;;20.65;83.60;101022.25;4989829;28;21406;-72
2023/08/15 01:28:12;;;;;;;6.17;4.57;;;;;;;20.61;83.58;101013.47;4979128;28;20212;-71
2023/08/15 01:30:44;;;;;;;5.73;5.13;;;;;;;20.57;83.39;101012.69;4987123;28;20355;-71
2023/08/15 01:33:16;;;;;;;5.33;4.43;;;;;;;20.55;83.45;101014.22;4981039;28;20209;-71
2023/08/15 01:35:47;;;;;;;6.30;5.00;;;;;;;20.50;83.33;101004.59;4986990;28;20211;-71
2023/08/15 01:38:26;;;;;;;5.20;4.70;;;;;;;20.46;83.35;101003.84;4989561;28;21035;-71
2023/08/15 01:40:59;;;;;;;5.93;4.93;;;;;;;20.42;83.36;100996.94;4989813;28;20231;-71
2023/08/15 01:43:27;;;;;;;7.10;5.40;;;;;;;20.40;83.50;100996.56;4982951;28;20215;-71
2023/08/15 01:45:55;;;;;;;6.80;4.90;;;;;;;20.37;83.51;100992.72;4986627;28;20215;-72
2023/08/15 01:48:22;;;;;;;6.83;5.10;;;;;;;20.34;83.47;100992.72;4987762;28;20589;-71
2023/08/15 01:50:48;;;;;;;7.63;5.33;;;;;;;20.30;83.50;100986.56;4987247;28;20231;-72
2023/08/15 01:53:14;;;;;;;6.27;5.00;;;;;;;20.26;83.28;100975.84;4989283;28;20226;-72
2023/08/15 01:55:41;;;;;;;5.97;5.13;;;;;;;20.23;83.39;100981.97;4987191;28;21662;-72
2023/08/15 01:58:08;;;;;;;5.70;5.07;;;;;;;20.20;83.64;100973.91;4989984;28;20241;-72
2023/08/15 02:00:35;;;;;;;6.20;5.07;;;;;;;20.18;83.58;100971.59;4985728;28;20241;-72
2023/08/15 02:03:02;;;;;;;6.57;5.53;;;;;;;20.16;83.98;100973.13;4983527;28;21502;-71
2023/08/15 02:05:28;;;;;;;5.87;5.30;;;;;;;20.14;84.05;100978.13;4990277;28;20898;-72
2023/08/15 02:07:54;;;;;;;6.40;5.80;;;;;;;20.11;84.03;100979.63;4988928;28;21018;-72
2023/08/15 02:10:21;;;;;;;6.97;5.70;;;;;;;20.08;83.91;100966.97;4985099;28;20244;-71
2023/08/15 02:12:48;;;;;;;6.93;5.50;;;;;;;20.07;84.20;100970.06;4993041;28;20200;-72
2023/08/15 02:15:16;;;;;;;7.67;5.93;;;;;;;20.06;84.27;100976.53;4983097;28;20207;-70
2023/08/15 02:17:42;;;;;;;6.87;5.67;;;;;;;20.04;84.28;100976.13;4988479;28;20231;-71
2023/08/15 02:20:09;;;;;;;7.07;6.37;;;;;;;20.03;84.27;100974.63;4992665;28;20231;-71
2023/08/15 02:22:36;;;;;;;6.87;5.93;;;;;;;20.01;84.89;100966.94;4983157;28;20824;-71
2023/08/15 02:25:02;;;;;;;7.37;6.10;;;;;;;20.01;85.24;100974.19;4989341;28;20904;-72
2023/08/15 02:27:28;;;;;;;8.63;6.33;;;;;;;20.00;85.39;100970.78;4989755;28;20199;-72
2023/08/15 02:29:55;;;;;;;7.10;6.23;;;;;;;20.01;85.99;100972.31;4987893;28;20230;-72
2023/08/15 02:32:22;;;;;;;9.13;7.00;;;;;;;20.02;86.08;100984.56;4985005;28;20215;-72
2023/08/15 02:34:49;;;;;;;7.40;6.60;;;;;;;20.04;85.84;100965.41;4990715;28;20681;-72
2023/08/15 02:37:16;;;;;;;10.93;6.97;;;;;;;20.05;86.22;100966.94;4986129;28;20716;-71
2023/08/15 02:39:42;;;;;;;7.27;6.20;;;;;;;20.06;85.80;100971.94;4984680;28;20641;-71
2023/08/15 02:42:09;;;;;;;8.13;6.90;;;;;;;20.06;85.85;100966.56;4988792;28;21251;-72
2023/08/15 02:44:35;;;;;;;8.13;7.03;;;;;;;20.08;85.97;100969.66;4988929;28;20207;-72
2023/08/15 02:47:01;;;;;;;7.50;6.27;;;;;;;20.07;86.01;100962.03;4992360;28;20211;-71
2023/08/15 02:49:29;;;;;;;7.30;5.97;;;;;;;20.08;86.29;100963.56;4991062;28;20233;-71
2023/08/15 02:51:56;;;;;;;8.53;6.93;;;;;;;20.08;86.14;100969.66;4987925;28;20207;-71
2023/08/15 02:54:23;;;;;;;8.97;6.90;;;;;;;20.06;86.12;100971.94;4985972;28;20203;-71
2023/08/15 02:56:49;;;;;;;7.70;6.80;;;;;;;20.06;86.17;100969.25;4985886;28;21378;-71
2023/08/15 02:59:15;;;;;;;8.60;6.87;;;;;;;20.06;85.91;100968.47;4989074;28;20992;-71
2023/08/15 03:01:41;;;;;;;8.17;6.60;;;;;;;20.05;86.10;100965.03;4988044;28;20693;-70
2023/08/15 03:04:09;;;;;;;8.33;7.20;;;;;;;20.04;85.68;100968.09;4979496;28;20227;-71
2023/08/15 03:06:37;;;;;;;9.90;7.07;;;;;;;20.03;85.91;100963.88;4988398;28;22755;-72
2023/08/15 03:09:03;;;;;;;7.93;6.43;;;;;;;20.01;85.85;100961.59;4989880;28;20207;-72
2023/08/15 03:11:30;;;;;;;7.83;7.00;;;;;;;20.02;86.02;100970.41;4992337;28;20265;-72
2023/08/15 03:13:58;;;;;;;7.83;6.60;;;;;;;20.00;85.74;100962.72;4990377;28;20279;-71
2023/08/15 03:16:25;;;;;;;8.07;6.73;;;;;;;19.99;85.86;100969.25;4986978;28;20794;-72
2023/08/15 03:18:51;;;;;;;8.17;7.33;;;;;;;19.99;85.64;100971.16;4986699;28;20227;-71
2023/08/15 03:21:18;;;;;;;10.90;6.80;;;;;;;19.98;85.95;100970.38;4980231;28;20238;-72
2023/08/15 03:23:45;;;;;;;7.57;6.97;;;;;;;19.97;85.84;100982.25;4982283;28;20577;-71
2023/08/15 03:26:12;;;;;;;7.33;6.63;;;;;;;19.97;85.80;100973.44;4985237;28;20380;-72
2023/08/15 03:28:38;;;;;;;7.97;7.00;;;;;;;19.96;86.18;100979.94;4983891;28;20222;-71
2023/08/15 03:31:06;;;;;;;9.60;7.30;;;;;;;19.95;86.11;100981.88;4987837;28;20238;-71
2023/08/15 03:33:37;;;;;;;8.40;7.47;;;;;;;19.93;86.27;100973.41;4982869;28;21474;-71
2023/08/15 03:36:04;;;;;;;9.13;7.33;;;;;;;19.92;86.22;100974.56;4982025;28;21855;-71
2023/08/15 03:38:31;;;;;;;10.27;7.10;;;;;;;19.93;86.19;100972.66;4985392;28;20728;-71
2023/08/15 03:41:03;;;;;;;8.93;6.97;;;;;;;19.92;86.06;100963.84;4988131;28;20308;-71
2023/08/15 03:43:30;;;;;;;8.10;7.30;;;;;;;19.91;86.09;100962.31;4989225;28;20688;-72
2023/08/15 03:45:56;;;;;;;7.97;7.23;;;;;;;19.90;86.27;100962.69;4984992;28;21715;-72
2023/08/15 03:48:22;;;;;;;7.77;7.03;;;;;;;19.90;86.25;100963.47;4983399;28;20219;-72
2023/08/15 03:50:52;;;;;;;10.53;7.10;;;;;;;19.90;86.23;100973.41;4985599;28;22411;-72
2023/08/15 03:53:19;;;;;;;8.10;7.30;;;;;;;19.89;86.25;100978.03;4983791;28;20902;-72
2023/08/15 03:55:47;;;;;;;9.13;6.70;;;;;;;19.90;86.38;100970.72;4980231;28;20268;-72
2023/08/15 03:58:14;;;;;;;7.67;6.93;;;;;;;19.89;86.16;100974.56;4988615;28;20231;-71
2023/08/15 04:00:41;;;;;;;7.33;6.60;;;;;;;19.88;86.05;100973.03;4988953;28;20235;-71
2023/08/15 04:03:08;;;;;;;7.83;6.67;;;;;;;19.87;85.89;100969.56;4984977;28;20513;-71
2023/08/15 04:05:34;;;;;;;8.00;7.20;;;;;;;19.87;86.00;100974.19;4983054;28;20211;-70
2023/08/15 04:08:00;;;;;;;8.00;7.03;;;;;;;19.86;86.06;100983.38;4986622;28;20345;-71
2023/08/15 04:10:27;;;;;;;9.73;7.27;;;;;;;19.85;85.87;100985.28;4982161;28;20237;-72
2023/08/15 04:12:53;;;;;;;7.63;6.73;;;;;;;19.84;85.74;100989.09;4980211;28;20302;-71
2023/08/15 04:15:21;;;;;;;7.67;6.83;;;;;;;19.83;85.99;100992.16;4980359;28;21604;-71
2023/08/15 04:17:49;;;;;;;6.77;6.07;;;;;;;19.83;85.72;100992.94;4984227;28;20219;-71
2023/08/15 04:20:16;;;;;;;8.23;6.60;;;;;;;19.83;85.80;100984.13;4988033;28;20227;-71
2023/08/15 04:22:44;;;;;;;7.80;6.40;;;;;;;19.82;85.72;100983.34;4986150;28;20790;-71
2023/08/15 04:25:10;;;;;;;8.63;7.57;;;;;;;19.84;85.94;100989.09;4988796;28;20599;-71
2023/08/15 04:27:37;;;;;;;9.43;7.47;;;;;;;19.85;86.30;100992.53;4986891;28;20586;-72
2023/08/15 04:30:04;;;;;;;9.47;7.47;;;;;;;19.88;86.42;100994.47;4978619;28;20934;-72
2023/08/15 04:32:32;;;;;;;9.87;7.77;;;;;;;19.91;86.58;100996.38;4985049;28;20200;-71
2023/08/15 04:34:58;;;;;;;9.43;8.43;;;;;;;19.93;86.42;100994.84;4987359;28;20256;-71
2023/08/15 04:37:25;;;;;;;11.07;8.30;;;;;;;19.97;86.56;100989.53;4979274;28;20681;-71
2023/08/15 04:39:51;;;;;;;8.70;7.70;;;;;;;20.00;86.21;100989.53;4986300;28;20324;-72
2023/08/15 04:42:18;;;;;;;8.80;7.97;;;;;;;20.05;86.32;100991.06;4983658;28;20725;-71
2023/08/15 04:44:45;;;;;;;9.53;8.10;;;;;;;20.10;86.11;100985.38;4982279;28;20219;-71
2023/08/15 04:47:11;;;;;;;9.40;7.50;;;;;;;20.14;86.07;100984.25;4980528;28;20203;-71
2023/08/15 04:49:39;;;;;;;7.97;7.17;;;;;;;20.18;86.30;100995.00;4979032;28;20223;-72
2023/08/15 04:52:06;;;;;;;9.60;8.10;;;;;;;20.22;86.05;100985.00;4984309;28;21126;-72
2023/08/15 04:54:32;;;;;;;10.07;8.40;;;;;;;20.28;86.26;100981.59;4974884;28;20204;-72
2023/08/15 04:56:59;;;;;;;8.70;7.90;;;;;;;20.33;85.96;100985.81;4980493;28;20253;-71
2023/08/15 04:59:25;;;;;;;9.53;7.77;;;;;;;20.38;86.44;100991.56;4975325;28;20242;-72
2023/08/15 05:01:51;;;;;;;9.53;7.97;;;;;;;20.43;86.26;100996.56;4981457;28;20207;-72
2023/08/15 05:04:18;;;;;;;10.97;7.90;;;;;;;20.49;86.08;100994.28;4981880;28;20230;-72
2023/08/15 05:06:45;;;;;;;8.50;7.43;;;;;;;20.53;86.18;100998.50;4985388;28;20203;-72
2023/08/15 05:09:12;;;;;;;9.37;8.37;;;;;;;20.57;85.78;100996.59;4983883;28;20496;-71
2023/08/15 05:11:38;;;;;;;10.37;7.60;;;;;;;20.62;85.94;100990.06;4985788;28;20214;-72
2023/08/15 05:14:06;;;;;;;9.47;8.10;;;;;;;20.66;85.86;100991.63;4984412;28;21303;-71
2023/08/15 05:16:32;;;;;;;9.60;7.90;;;;;;;20.70;85.72;100987.00;4983389;28;20211;-72
2023/08/15 05:19:00;;;;;;;9.10;8.20;;;;;;;20.74;85.21;100993.13;4983860;28;21236;-71
2023/08/15 05:21:28;;;;;;;9.77;7.80;;;;;;;20.79;85.66;100994.66;4988214;28;20211;-71
2023/08/15 05:23:55;;;;;;;11.00;8.50;;;;;;;20.82;85.57;100994.69;4986910;28;20302;-72
2023/08/15 05:26:22;;;;;;;8.60;7.80;;;;;;;20.88;85.57;101000.41;4985430;28;20245;-71
2023/08/15 05:28:48;;;;;;;8.87;8.07;;;;;;;20.93;85.29;101000.84;4993382;28;20961;-72
2023/08/15 05:31:15;;;;;;;12.20;8.83;;;;;;;20.99;85.33;100998.53;4991959;28;22165;-71
2023/08/15 05:33:41;;;;;;;9.97;8.87;;;;;;;21.06;85.03;100999.28;4987659;28;20211;-71
2023/08/15 05:36:08;;;;;;;11.60;9.10;;;;;;;21.13;85.26;101004.66;4987260;28;20648;-71
2023/08/15 05:38:36;;;;;;;9.43;8.50;;;;;;;21.20;85.02;101004.66;4994932;28;20227;-72
2023/08/15 05:41:04;;;;;;;8.83;7.93;;;;;;;21.28;84.72;101010.78;4990739;28;20232;-72
2023/08/15 05:43:30;;;;;;;10.30;8.10;;;;;;;21.36;84.49;101012.31;4992200;28;20207;-71
2023/08/15 05:45:57;;;;;;;9.73;8.30;;;;;;;21.43;84.15;101014.97;4992323;28;20844;-71
2023/08/15 05:48:23;;;;;;;9.00;7.80;;;;;;;21.50;84.26;101015.72;4994437;28;20708;-71
2023/08/15 05:50:49;;;;;;;8.60;7.80;;;;;;;21.58;83.60;101011.84;4993436;28;20227;-72
2023/08/15 05:53:16;;;;;;;8.10;7.33;;;;;;;21.66;83.82;101024.13;4992169;28;21379;-70
2023/08/15 05:55:42;;;;;;;8.57;7.77;;;;;;;21.74;83.66;101022.94;4991692;28;20207;-70
2023/08/15 05:58:10;;;;;;;8.17;7.40;;;;;;;21.81;83.24;101017.56;4994150;28;20766;-71
2023/08/15 06:00:37;;;;;;;8.50;7.63;;;;;;;21.89;83.29;101023.69;4991681;28;20241;-72
2023/08/15 06:03:05;;;;;;;8.77;7.82;;;;;;;21.98;83.15;101019.41;4991534;28;20203;-71
2023/08/15 06:05:31;;;;;;;8.77;7.30;;;;;;;22.06;82.21;101020.91;4994066;28;20270;-71
2023/08/15 06:07:58;;;;;;;7.90;7.10;;;;;;;22.15;82.25;101020.50;4994529;28;20214;-71
2023/08/15 06:10:25;;;;;;;8.57;7.20;;;;;;;22.22;81.92;101023.13;4992940;28;20578;-71
2023/08/15 06:12:51;;;;;;;8.65;7.38;;;;;;;22.33;82.41;101031.91;4986740;28;21387;-72
2023/08/15 06:15:19;;;;;;;7.53;6.82;;;;;;;22.41;80.77;101033.41;4993439;28;20950;-72
2023/08/15 06:17:45;;;;;;;7.82;7.03;;;;;;;22.48;81.14;101038.78;4994986;28;20196;-71
2023/08/15 06:20:12;;;;;;;7.90;7.07;;;;;;;22.56;80.79;101037.56;4994078;28;20227;-72
2023/08/15 06:22:38;;;;;;;9.82;7.05;;;;;;;22.63;80.29;101029.44;4987285;28;20211;-71
2023/08/15 06:25:05;;;;;;;6.97;6.28;;;;;;;22.70;80.92;101026.69;4992164;28;20203;-71
2023/08/15 06:27:32;;;;;;;8.30;6.85;;;;;;;22.77;80.33;101029.34;4993373;28;20218;-72
2023/08/15 06:29:58;;;;;;;9.20;6.60;;;;;;;22.82;80.27;101028.94;4997410;28;20224;-72
2023/08/15 06:32:26;;;;;;;8.10;6.30;;;;;;;22.92;80.94;101026.13;4993462;28;20222;-71
2023/08/15 06:34:52;;;;;;;8.88;6.30;;;;;;;23.00;81.24;101016.84;4991437;28;20218;-72
2023/08/15 06:37:19;;;;;;;6.80;6.13;;;;;;;23.07;79.43;101016.03;4996672;28;20219;-71
2023/08/15 06:39:45;;;;;;;7.25;6.13;;;;;;;23.15;77.32;101012.84;4994134;28;20235;-71
2023/08/15 06:42:12;;;;;;;6.63;6.03;;;;;;;23.23;78.09;101010.13;4990309;28;20211;-71
2023/08/15 06:44:39;;;;;;;7.20;5.97;;;;;;;23.32;79.94;101008.47;4986513;28;20218;-71
2023/08/15 06:47:05;;;;;;;9.98;6.25;;;;;;;23.39;78.11;101017.25;4981095;28;20239;-72
2023/08/15 06:49:33;;;;;;;8.13;6.05;;;;;;;23.48;77.54;101021.41;4989467;28;20258;-72
2023/08/15 06:51:59;;;;;;;7.30;6.13;;;;;;;23.55;76.43;101016.72;5011370;28;20211;-71
2023/08/15 06:54:26;;;;;;;6.28;5.68;;;;;;;23.67;78.29;101021.56;5027937;28;20207;-72
2023/08/15 06:56:52;;;;;;;6.97;5.78;;;;;;;23.75;75.07;101017.63;5032108;28;20306;-72
2023/08/15 06:59:20;;;;;;;8.52;5.75;;;;;;;23.83;77.70;101015.63;5029827;28;20232;-72
2023/08/15 07:01:46;;;;;;;6.43;5.65;;;;;;;23.91;75.78;101014.38;5035577;28;20200;-72
2023/08/15 07:04:12;;;;;;;8.88;6.60;;;;;;;23.97;75.31;101005.44;5033182;28;20203;-72
2023/08/15 07:06:40;;;;;;;10.63;6.45;;;;;;;24.07;75.21;101014.56;5036371;28;20717;-72
2023/08/15 07:09:07;;;;;;;6.72;5.90;;;;;;;24.16;74.91;100996.72;5038794;28;20277;-72
2023/08/15 07:11:33;;;;;;;7.47;5.30;;;;;;;24.27;71.76;100997.31;5033955;28;20211;-72
2023/08/15 07:13:59;;;;;;;7.60;5.72;;;;;;;24.35;75.63;100995.28;5035455;28;20208;-72
2023/08/15 07:16:26;;;;;;;6.95;5.05;;;;;;;24.43;72.85;100992.81;5034644;28;20211;-72
2023/08/15 07:18:52;;;;;;;6.20;5.20;;;;;;;24.52;73.74;100995.75;5035081;28;20603;-72
2023/08/15 07:21:19;;;;;;;5.63;4.85;;;;;;;24.60;71.68;100999.16;5033972;28;20235;-71
2023/08/15 07:23:46;;;;;;;5.40;4.90;;;;;;;24.69;70.44;100999.41;5033550;28;20565;-72
2023/08/15 07:26:13;;;;;;;5.07;4.57;;;;;;;24.78;70.47;100991.53;5036838;28;20215;-72
2023/08/15 07:28:39;;;;;;;5.97;4.75;;;;;;;24.85;66.80;100990.63;5038072;28;20218;-72
2023/08/15 07:31:06;;;;;;;8.48;4.65;;;;;;;24.95;67.35;100997.81;5033597;28;20714;-72
2023/08/15 07:33:32;;;;;;;6.32;4.47;;;;;;;25.01;66.51;100996.94;5033335;28;20275;-72
2023/08/15 07:35:59;;;;;;;5.00;4.25;;;;;;;25.11;68.81;100998.69;5037118;28;20206;-72
2023/08/15 07:38:25;;;;;;;4.70;3.90;;;;;;;25.16;64.40;101000.13;5034655;28;20568;-72
2023/08/15 07:40:53;;;;;;;4.63;3.88;;;;;;;25.21;61.40;101000.44;5033655;28;20229;-72
2023/08/15 07:43:19;;;;;;;3.83;3.38;;;;;;;25.29;59.74;101001.09;5035532;28;20215;-71
2023/08/15 07:45:45;;;;;;;4.13;3.30;;;;;;;25.37;60.05;101005.94;5034868;28;20207;-72
2023/08/15 07:48:12;;;;;;;4.65;3.75;;;;;;;25.43;62.63;101004.28;5038447;28;20616;-72
2023/08/15 07:50:38;;;;;;;5.75;3.58;;;;;;;25.50;58.23;101011.50;5033071;28;20223;-72
2023/08/15 07:53:06;;;;;;;4.30;3.90;;;;;;;25.58;55.39;101010.22;5035302;28;20199;-72
2023/08/15 07:55:32;;;;;;;4.90;3.50;;;;;;;25.66;59.66;101012.34;5032459;28;20218;-71
2023/08/15 07:58:00;;;;;;;4.65;3.33;;;;;;;25.73;57.78;101009.50;5034423;28;20205;-72
2023/08/15 08:00:26;;;;;;;5.07;3.60;;;;;;;25.82;66.09;101004.28;5033991;28;20231;-72
2023/08/15 08:02:53;;;;;;;3.97;3.30;;;;;;;25.93;64.67;101010.28;5036358;28;20307;-72
2023/08/15 08:05:20;;;;;;;4.40;3.50;;;;;;;25.99;57.89;101005.88;5033794;28;20222;-72
2023/08/15 08:07:47;;;;;;;4.35;3.95;;;;;;;26.05;57.28;101009.63;5027975;28;20384;-72
2023/08/15 08:10:13;;;;;;;4.18;3.72;;;;;;;26.15;57.77;101019.44;5033859;28;20219;-72
2023/08/15 08:12:39;;;;;;;3.88;3.40;;;;;;;26.24;52.49;101016.16;5030539;28;20195;-71
2023/08/15 08:15:09;;;;;;;3.97;3.63;;;;;;;26.33;55.15;101014.41;5030053;28;20203;-72
2023/08/15 08:17:35;;;;;;;3.75;3.45;;;;;;;26.41;54.96;101015.03;5035946;28;20203;-72
2023/08/15 08:20:06;;;;;;;4.80;3.72;;;;;;;26.50;53.85;101023.31;5033717;28;20318;-72
2023/08/15 08:22:32;;;;;;;5.03;3.75;;;;;;;26.59;54.85;101018.88;5035158;28;20203;-72
2023/08/15 08:25:10;;;;;;;5.72;3.70;;;;;;;26.67;56.09;101022.19;5034261;28;20658;-72
2023/08/15 08:27:37;;;;;;;4.07;3.67;;;;;;;26.75;56.33;101015.38;5030755;28;20218;-72
2023/08/15 08:30:04;;;;;;;4.30;3.90;;;;;;;26.81;53.97;101017.16;5032453;28;20219;-72
2023/08/15 08:32:32;;;;;;;5.18;4.25;;;;;;;26.91;54.90;101023.50;5032962;28;20257;-72
2023/08/15 08:34:58;;;;;;;4.10;3.58;;;;;;;27.00;51.43;101020.94;5036323;28;20291;-72
2023/08/15 08:37:25;;;;;;;6.53;4.53;;;;;;;27.08;53.87;101027.72;5052746;28;20261;-72
2023/08/15 08:39:51;;;;;;;5.05;4.53;;;;;;;27.19;58.26;101030.97;5032061;28;20231;-72
2023/08/15 08:42:18;;;;;;;4.28;3.88;;;;;;;27.25;58.87;101027.28;5033098;28;20214;-72
2023/08/15 08:44:46;;;;;;;5.15;3.97;;;;;;;27.34;52.00;101022.00;5032518;28;20527;-72
2023/08/15 08:47:13;;;;;;;7.35;4.05;;;;;;;27.42;54.35;101019.88;5035446;28;20216;-72
2023/08/15 08:49:41;;;;;;;4.63;4.00;;;;;;;27.49;56.06;101016.94;5034309;28;20319;-72
2023/08/15 08:52:08;;;;;;;4.72;3.40;;;;;;;27.58;53.93;101019.81;5034679;28;20206;-71
2023/08/15 08:54:35;;;;;;;6.93;3.67;;;;;;;27.67;54.75;101020.72;5032777;28;20207;-72
2023/08/15 08:57:04;;;;;;;5.32;4.03;;;;;;;27.78;53.01;101017.69;5032873;28;20226;-72
2023/08/15 08:59:32;;;;;;;6.43;3.80;;;;;;;27.85;52.06;101017.50;5033154;28;20302;-72
2023/08/15 09:01:59;;;;;;;7.50;4.25;;;;;;;27.96;48.93;101016.00;5031925;28;20750;-72
2023/08/15 09:04:26;;;;;;;7.63;4.20;;;;;;;28.04;50.16;101013.84;5035814;28;20289;-72
2023/08/15 09:06:54;;;;;;;4.88;4.25;;;;;;;28.10;51.65;101022.97;5038156;28;20210;-72
2023/08/15 09:09:20;;;;;;;3.90;3.60;;;;;;;28.18;49.28;101019.59;5039274;28;20220;-72
2023/08/15 09:11:47;;;;;;;6.82;3.85;;;;;;;28.26;51.77;101017.44;5033399;28;20693;-72
2023/08/15 09:14:14;;;;;;;3.97;3.63;;;;;;;28.35;52.10;101015.59;5033957;28;20207;-72
2023/08/15 09:16:47;;;;;;;3.90;3.60;;;;;;;28.45;51.02;101011.06;5036184;28;20218;-71
2023/08/15 09:19:14;;;;;;;4.00;3.65;;;;;;;28.53;48.42;101010.38;5037349;28;20673;-72
2023/08/15 09:21:40;;;;;;;4.43;3.97;;;;;;;28.63;52.11;101024.81;5033980;28;20735;-72
2023/08/15 09:24:09;;;;;;;4.43;4.03;;;;;;;28.70;50.11;101008.31;5037652;28;20199;-72
2023/08/15 09:26:36;;;;;;;5.68;4.00;;;;;;;28.77;47.80;101017.00;5035127;28;20228;-71
2023/08/15 09:29:03;;;;;;;6.32;3.55;;;;;;;28.82;51.59;101016.44;5035560;28;20199;-72
2023/08/15 09:31:29;;;;;;;5.10;4.03;;;;;;;28.91;54.52;101013.81;5036002;28;20203;-72
2023/08/15 09:33:56;;;;;;;4.85;4.35;;;;;;;28.97;55.99;101014.81;5038727;28;20282;-72
2023/08/15 09:36:24;;;;;;;5.95;4.03;;;;;;;29.04;51.15;101021.94;5038567;28;20233;-72
2023/08/15 09:38:51;;;;;;;5.25;4.57;;;;;;;29.06;47.63;101008.69;5033552;28;20203;-72
2023/08/15 09:41:24;;;;;;;5.82;4.07;;;;;;;29.12;53.11;101004.97;5036099;28;20751;-71
2023/08/15 09:43:51;;;;;;;6.65;4.40;;;;;;;29.19;53.26;101004.72;5033391;28;20221;-72
2023/08/15 09:46:18;;;;;;;5.07;4.55;;;;;;;29.23;46.98;100997.19;5037579;28;20208;-72
2023/08/15 09:48:46;;;;;;;5.38;4.30;;;;;;;29.31;47.90;101000.41;5035493;28;20210;-72
2023/08/15 09:51:15;;;;;;;5.80;4.40;;;;;;;29.35;48.01;100993.63;5034580;28;20223;-72
2023/08/15 09:53:42;;;;;;;4.55;4.05;;;;;;;29.42;55.03;100996.09;5031196;28;20207;-72
2023/08/15 09:56:09;;;;;;;4.85;4.13;;;;;;;29.50;50.63;100996.59;5037601;28;20211;-72
2023/08/15 09:58:37;;;;;;;7.38;4.43;;;;;;;29.56;50.84;100995.63;5037788;28;20215;-72
2023/08/15 10:01:06;;;;;;;5.60;4.20;;;;;;;29.61;45.11;100981.44;5036260;28;20412;-72
2023/08/15 10:03:36;;;;;;;7.13;4.63;;;;;;;29.71;53.80;100987.69;5038274;28;20199;-72
2023/08/15 10:06:04;;;;;;;6.15;4.38;;;;;;;29.77;48.56;100992.13;5036809;28;20620;-72
2023/08/15 10:08:30;;;;;;;5.68;4.50;;;;;;;29.80;47.14;100996.69;5037168;28;20211;-72
2023/08/15 10:10:59;;;;;;;5.43;4.30;;;;;;;29.84;48.06;100999.25;5035096;28;20306;-72
2023/08/15 10:13:28;;;;;;;4.82;3.92;;;;;;;29.88;45.10;100991.72;5037917;28;20222;-72
2023/08/15 10:15:56;;;;;;;4.55;4.15;;;;;;;29.92;49.18;100992.31;5033545;28;20254;-72
2023/08/15 10:18:23;;;;;;;4.00;3.65;;;;;;;29.97;45.47;100983.56;5034241;28;20214;-72
2023/08/15 10:20:51;;;;;;;4.43;4.00;;;;;;;30.03;47.04;100979.09;5032368;28;20689;-72
2023/08/15 10:23:24;;;;;;;4.25;3.80;;;;;;;30.13;45.83;100986.09;5034256;28;20290;-72
2023/08/15 10:25:52;;;;;;;4.43;4.03;;;;;;;30.18;46.59;100985.50;5032661;28;20200;-72
2023/08/15 10:28:20;;;;;;;7.18;4.10;;;;;;;30.24;52.24;100986.47;5035468;28;20204;-71
2023/08/15 10:30:47;;;;;;;7.93;3.97;;;;;;;30.30;47.22;100985.41;5034993;28;20235;-72
2023/08/15 10:33:19;;;;;;;5.60;4.15;;;;;;;30.38;49.50;100986.63;5038728;28;20287;-72
2023/08/15 10:35:52;;;;;;;4.35;3.75;;;;;;;30.41;44.04;100985.75;5035602;28;20208;-72
2023/08/15 10:38:21;;;;;;;5.47;3.78;;;;;;;30.48;47.02;100988.19;5036691;28;20199;-72
2023/08/15 10:40:48;;;;;;;4.68;3.72;;;;;;;30.54;50.35;100991.81;5032747;28;20220;-72
2023/08/15 10:43:15;;;;;;;7.50;3.90;;;;;;;30.61;46.80;100990.78;5037058;28;20821;-72
2023/08/15 10:45:44;;;;;;;4.53;3.90;;;;;;;30.66;46.23;100995.66;5037426;28;20281;-72
2023/08/15 10:48:11;;;;;;;4.40;3.90;;;;;;;30.72;52.00;100983.72;5033193;28;20266;-72
2023/08/15 10:50:44;;;;;;;4.30;3.75;;;;;;;30.79;44.17;100988.88;5033714;28;20645;-72
2023/08/15 10:53:10;;;;;;;6.75;3.83;;;;;;;30.83;45.47;100989.47;5034036;28;20760;-72
2023/08/15 10:55:38;;;;;;;6.25;4.57;;;;;;;30.88;46.30;100983.44;5034725;28;20593;-72
2023/08/15 10:58:07;;;;;;;5.63;4.05;;;;;;;30.94;44.18;100978.88;5037534;28;20210;-72
2023/08/15 11:00:34;;;;;;;4.45;3.92;;;;;;;30.99;45.06;100983.72;5036166;28;20219;-72
2023/08/15 11:03:01;;;;;;;5.78;3.75;;;;;;;31.06;45.39;100982.66;5037765;28;20576;-72
2023/08/15 11:05:28;;;;;;;3.95;3.63;;;;;;;31.11;46.22;100982.81;5033065;28;20704;-72
2023/08/15 11:08:09;;;;;;;10.05;4.00;;;;;;;31.19;42.85;100975.06;5035768;28;20545;-72
2023/08/15 11:10:35;;;;;;;5.70;4.03;;;;;;;31.28;45.81;100977.84;5033190;28;20693;-72
2023/08/15 11:13:02;;;;;;;4.78;3.90;;;;;;;31.37;44.61;100980.53;5034656;28;20688;-72
2023/08/15 11:15:32;;;;;;;6.30;4.25;;;;;;;31.44;47.00;100972.78;5037787;28;20581;-72
2023/08/15 11:17:58;;;;;;;6.45;4.18;;;;;;;31.53;45.56;100972.03;5035134;28;20203;-72
2023/08/15 11:20:28;;;;;;;4.68;4.00;;;;;;;31.62;44.41;100967.28;5032740;28;20720;-72
2023/08/15 11:22:57;;;;;;;4.32;3.70;;;;;;;31.74;43.90;100962.88;5036702;28;20495;-72
2023/08/15 11:25:23;;;;;;;4.55;4.15;;;;;;;31.82;44.69;100969.53;5029309;28;20226;-71